sensor_id;sensor_type;location;lat;lon;timestamp;pressure;altitude;pressure_sealevel;temperature
66113;BMP280;52893;52.870;5.822;2023-10-08T00:00:23;102142.94;;;17.22
66113;BMP280;52893;52.870;5.822;2023-10-08T00:03:09;102141.84;;;17.02
66113;BMP280;52893;52.870;5.822;2023-10-08T00:05:39;102119.50;;;16.83
66113;BMP280;52893;52.870;5.822;2023-10-08T00:08:06;102118.59;;;16.70
66113;BMP280;52893;52.870;5.822;2023-10-08T00:10:39;102128.78;;;16.58
66113;BMP280;52893;52.870;5.822;2023-10-08T00:13:07;102141.97;;;16.52
66113;BMP280;52893;52.870;5.822;2023-10-08T00:15:35;102142.81;;;16.44
66113;BMP280;52893;52.870;5.822;2023-10-08T00:18:03;102146.56;;;16.39
66113;BMP280;52893;52.870;5.822;2023-10-08T00:20:32;102147.09;;;16.33
66113;BMP280;52893;52.870;5.822;2023-10-08T00:23:10;102165.16;;;16.22
66113;BMP280;52893;52.870;5.822;2023-10-08T00:25:37;102163.16;;;16.10
66113;BMP280;52893;52.870;5.822;2023-10-08T00:28:08;102173.19;;;16.06
66113;BMP280;52893;52.870;5.822;2023-10-08T00:30:39;102132.06;;;16.01
66113;BMP280;52893;52.870;5.822;2023-10-08T00:33:07;102148.94;;;15.99
66113;BMP280;52893;52.870;5.822;2023-10-08T00:35:38;102129.19;;;15.97
66113;BMP280;52893;52.870;5.822;2023-10-08T00:38:06;102113.78;;;15.96
66113;BMP280;52893;52.870;5.822;2023-10-08T00:40:42;102124.31;;;15.94
66113;BMP280;52893;52.870;5.822;2023-10-08T00:43:29;102132.56;;;15.94
66113;BMP280;52893;52.870;5.822;2023-10-08T00:45:57;102118.97;;;15.98
66113;BMP280;52893;52.870;5.822;2023-10-08T00:48:26;102125.28;;;15.98
66113;BMP280;52893;52.870;5.822;2023-10-08T00:50:56;102115.25;;;15.94
66113;BMP280;52893;52.870;5.822;2023-10-08T00:53:35;102112.84;;;15.84
66113;BMP280;52893;52.870;5.822;2023-10-08T00:56:07;102162.78;;;15.82
66113;BMP280;52893;52.870;5.822;2023-10-08T00:58:41;102180.91;;;15.83
66113;BMP280;52893;52.870;5.822;2023-10-08T01:01:12;102166.47;;;15.86
66113;BMP280;52893;52.870;5.822;2023-10-08T01:03:42;102153.53;;;15.87
66113;BMP280;52893;52.870;5.822;2023-10-08T01:06:11;102159.56;;;15.80
66113;BMP280;52893;52.870;5.822;2023-10-08T01:08:41;102195.47;;;15.84
66113;BMP280;52893;52.870;5.822;2023-10-08T01:11:18;102171.38;;;15.81
66113;BMP280;52893;52.870;5.822;2023-10-08T01:13:45;102156.78;;;15.80
66113;BMP280;52893;52.870;5.822;2023-10-08T01:16:13;102161.66;;;15.75
66113;BMP280;52893;52.870;5.822;2023-10-08T01:18:41;102183.84;;;15.78
66113;BMP280;52893;52.870;5.822;2023-10-08T01:21:17;102202.34;;;15.78
66113;BMP280;52893;52.870;5.822;2023-10-08T01:24:02;102235.03;;;15.79
66113;BMP280;52893;52.870;5.822;2023-10-08T01:26:32;102224.69;;;15.76
66113;BMP280;52893;52.870;5.822;2023-10-08T01:29:04;102234.75;;;15.72
66113;BMP280;52893;52.870;5.822;2023-10-08T01:31:35;102249.66;;;15.71
66113;BMP280;52893;52.870;5.822;2023-10-08T01:34:03;102239.78;;;15.62
66113;BMP280;52893;52.870;5.822;2023-10-08T01:36:30;102251.25;;;15.64
66113;BMP280;52893;52.870;5.822;2023-10-08T01:38:58;102246.09;;;15.62
66113;BMP280;52893;52.870;5.822;2023-10-08T01:41:29;102227.50;;;15.50
66113;BMP280;52893;52.870;5.822;2023-10-08T01:43:56;102242.88;;;15.60
66113;BMP280;52893;52.870;5.822;2023-10-08T01:46:25;102249.00;;;15.57
66113;BMP280;52893;52.870;5.822;2023-10-08T01:48:51;102251.28;;;15.55
66113;BMP280;52893;52.870;5.822;2023-10-08T01:51:26;102246.91;;;15.45
66113;BMP280;52893;52.870;5.822;2023-10-08T01:54:03;102272.31;;;15.51
66113;BMP280;52893;52.870;5.822;2023-10-08T01:56:39;102278.34;;;15.44
66113;BMP280;52893;52.870;5.822;2023-10-08T01:59:08;102260.22;;;15.35
66113;BMP280;52893;52.870;5.822;2023-10-08T02:01:37;102268.00;;;15.33
66113;BMP280;52893;52.870;5.822;2023-10-08T02:04:05;102252.59;;;15.23
66113;BMP280;52893;52.870;5.822;2023-10-08T02:06:36;102269.72;;;15.29
66113;BMP280;52893;52.870;5.822;2023-10-08T02:09:03;102241.94;;;15.22
66113;BMP280;52893;52.870;5.822;2023-10-08T02:11:43;102265.69;;;15.26
66113;BMP280;52893;52.870;5.822;2023-10-08T02:14:11;102268.13;;;15.28
66113;BMP280;52893;52.870;5.822;2023-10-08T02:16:42;102268.13;;;15.28
66113;BMP280;52893;52.870;5.822;2023-10-08T02:19:09;102266.66;;;15.30
66113;BMP280;52893;52.870;5.822;2023-10-08T02:21:37;102262.63;;;15.28
66113;BMP280;52893;52.870;5.822;2023-10-08T02:24:08;102269.44;;;15.30
66113;BMP280;52893;52.870;5.822;2023-10-08T02:26:37;102251.28;;;15.29
66113;BMP280;52893;52.870;5.822;2023-10-08T02:29:05;102258.59;;;15.34
66113;BMP280;52893;52.870;5.822;2023-10-08T02:31:37;102257.44;;;15.35
66113;BMP280;52893;52.870;5.822;2023-10-08T02:34:05;102238.66;;;15.37
66113;BMP280;52893;52.870;5.822;2023-10-08T02:36:38;102235.91;;;15.37
66113;BMP280;52893;52.870;5.822;2023-10-08T02:39:06;102251.63;;;15.45
66113;BMP280;52893;52.870;5.822;2023-10-08T02:41:40;102265.22;;;15.50
66113;BMP280;52893;52.870;5.822;2023-10-08T02:44:09;102264.56;;;15.53
66113;BMP280;52893;52.870;5.822;2023-10-08T02:46:40;102261.16;;;15.56
66113;BMP280;52893;52.870;5.822;2023-10-08T02:49:08;102241.56;;;15.49
66113;BMP280;52893;52.870;5.822;2023-10-08T02:51:39;102255.66;;;15.56
66113;BMP280;52893;52.870;5.822;2023-10-08T02:54:07;102225.06;;;15.40
66113;BMP280;52893;52.870;5.822;2023-10-08T02:56:43;102239.97;;;15.39
66113;BMP280;52893;52.870;5.822;2023-10-08T02:59:13;102231.88;;;15.43
66113;BMP280;52893;52.870;5.822;2023-10-08T03:01:41;102189.00;;;15.25
66113;BMP280;52893;52.870;5.822;2023-10-08T03:04:08;102224.78;;;15.33
66113;BMP280;52893;52.870;5.822;2023-10-08T03:06:44;102228.63;;;15.24
66113;BMP280;52893;52.870;5.822;2023-10-08T03:09:17;102249.69;;;15.28
66113;BMP280;52893;52.870;5.822;2023-10-08T03:11:48;102261.97;;;15.31
66113;BMP280;52893;52.870;5.822;2023-10-08T03:14:17;102247.09;;;15.32
66113;BMP280;52893;52.870;5.822;2023-10-08T03:16:50;102261.38;;;15.34
66113;BMP280;52893;52.870;5.822;2023-10-08T03:19:18;102266.88;;;15.34
66113;BMP280;52893;52.870;5.822;2023-10-08T03:21:49;102266.06;;;15.33
66113;BMP280;52893;52.870;5.822;2023-10-08T03:24:22;102210.66;;;15.00
66113;BMP280;52893;52.870;5.822;2023-10-08T03:27:04;102295.66;;;15.28
66113;BMP280;52893;52.870;5.822;2023-10-08T03:29:42;102301.16;;;15.28
66113;BMP280;52893;52.870;5.822;2023-10-08T03:32:14;102306.00;;;15.31
66113;BMP280;52893;52.870;5.822;2023-10-08T03:34:46;102291.63;;;15.34
66113;BMP280;52893;52.870;5.822;2023-10-08T03:37:14;102292.56;;;15.29
66113;BMP280;52893;52.870;5.822;2023-10-08T03:39:47;102328.84;;;15.31
66113;BMP280;52893;52.870;5.822;2023-10-08T03:42:22;102348.41;;;15.30
66113;BMP280;52893;52.870;5.822;2023-10-08T03:44:52;102353.78;;;15.35
66113;BMP280;52893;52.870;5.822;2023-10-08T03:47:22;102350.84;;;15.40
66113;BMP280;52893;52.870;5.822;2023-10-08T03:49:52;102341.66;;;15.44
66113;BMP280;52893;52.870;5.822;2023-10-08T03:52:20;102334.97;;;15.45
66113;BMP280;52893;52.870;5.822;2023-10-08T03:54:49;102337.59;;;15.42
66113;BMP280;52893;52.870;5.822;2023-10-08T03:57:30;102332.91;;;15.34
66113;BMP280;52893;52.870;5.822;2023-10-08T04:00:10;102331.28;;;15.41
66113;BMP280;52893;52.870;5.822;2023-10-08T04:02:40;102357.16;;;15.40
66113;BMP280;52893;52.870;5.822;2023-10-08T04:05:12;102360.72;;;15.41
66113;BMP280;52893;52.870;5.822;2023-10-08T04:07:45;102367.34;;;15.40
66113;BMP280;52893;52.870;5.822;2023-10-08T04:10:27;102353.94;;;15.38
66113;BMP280;52893;52.870;5.822;2023-10-08T04:13:34;102356.53;;;15.35
66113;BMP280;52893;52.870;5.822;2023-10-08T04:16:06;102356.06;;;15.33
66113;BMP280;52893;52.870;5.822;2023-10-08T04:18:33;102364.63;;;15.31
66113;BMP280;52893;52.870;5.822;2023-10-08T04:21:06;102368.19;;;15.32
66113;BMP280;52893;52.870;5.822;2023-10-08T04:23:39;102353.91;;;15.30
66113;BMP280;52893;52.870;5.822;2023-10-08T04:26:06;102259.16;;;14.71
66113;BMP280;52893;52.870;5.822;2023-10-08T04:28:34;102325.44;;;15.17
66113;BMP280;52893;52.870;5.822;2023-10-08T04:31:03;102344.19;;;15.24
66113;BMP280;52893;52.870;5.822;2023-10-08T04:33:45;102346.13;;;15.23
66113;BMP280;52893;52.870;5.822;2023-10-08T04:36:13;102360.72;;;15.24
66113;BMP280;52893;52.870;5.822;2023-10-08T04:38:46;102353.72;;;15.18
66113;BMP280;52893;52.870;5.822;2023-10-08T04:41:15;102363.00;;;15.22
66113;BMP280;52893;52.870;5.822;2023-10-08T04:43:45;102369.59;;;15.21
66113;BMP280;52893;52.870;5.822;2023-10-08T04:46:15;102376.09;;;15.16
66113;BMP280;52893;52.870;5.822;2023-10-08T04:49:14;102382.84;;;15.19
66113;BMP280;52893;52.870;5.822;2023-10-08T04:51:54;102374.47;;;15.15
66113;BMP280;52893;52.870;5.822;2023-10-08T04:54:24;102348.06;;;15.06
66113;BMP280;52893;52.870;5.822;2023-10-08T04:56:57;102355.50;;;15.14
66113;BMP280;52893;52.870;5.822;2023-10-08T04:59:25;102347.41;;;15.09
66113;BMP280;52893;52.870;5.822;2023-10-08T05:01:59;102358.78;;;15.16
66113;BMP280;52893;52.870;5.822;2023-10-08T05:04:46;102354.84;;;15.08
66113;BMP280;52893;52.870;5.822;2023-10-08T05:07:23;102362.66;;;15.15
66113;BMP280;52893;52.870;5.822;2023-10-08T05:10:04;102364.91;;;15.13
66113;BMP280;52893;52.870;5.822;2023-10-08T05:12:58;102359.88;;;15.06
66113;BMP280;52893;52.870;5.822;2023-10-08T05:15:41;102385.78;;;15.14
66113;BMP280;52893;52.870;5.822;2023-10-08T05:18:16;102394.53;;;15.16
66113;BMP280;52893;52.870;5.822;2023-10-08T05:20:51;102379.16;;;15.15
66113;BMP280;52893;52.870;5.822;2023-10-08T05:23:40;102381.09;;;15.14
66113;BMP280;52893;52.870;5.822;2023-10-08T05:26:38;102369.28;;;15.05
66113;BMP280;52893;52.870;5.822;2023-10-08T05:29:11;102389.34;;;15.14
66113;BMP280;52893;52.870;5.822;2023-10-08T05:32:15;102385.78;;;15.14
66113;BMP280;52893;52.870;5.822;2023-10-08T05:35:10;102397.28;;;15.16
66113;BMP280;52893;52.870;5.822;2023-10-08T05:37:58;102406.38;;;15.16
66113;BMP280;52893;52.870;5.822;2023-10-08T05:40:40;102421.06;;;15.20
66113;BMP280;52893;52.870;5.822;2023-10-08T05:43:27;102405.38;;;15.21
66113;BMP280;52893;52.870;5.822;2023-10-08T05:46:15;102410.06;;;15.20
66113;BMP280;52893;52.870;5.822;2023-10-08T05:49:05;102410.72;;;15.17
66113;BMP280;52893;52.870;5.822;2023-10-08T05:51:52;102423.53;;;15.22
66113;BMP280;52893;52.870;5.822;2023-10-08T05:54:38;102431.44;;;15.23
66113;BMP280;52893;52.870;5.822;2023-10-08T05:57:23;102405.38;;;15.21
66113;BMP280;52893;52.870;5.822;2023-10-08T06:00:05;102394.69;;;15.11
66113;BMP280;52893;52.870;5.822;2023-10-08T06:03:13;102418.44;;;15.07
66113;BMP280;52893;52.870;5.822;2023-10-08T06:06:04;102404.22;;;15.05
66113;BMP280;52893;52.870;5.822;2023-10-08T06:09:03;102379.13;;;14.97
66113;BMP280;52893;52.870;5.822;2023-10-08T06:11:49;102408.69;;;15.00
66113;BMP280;52893;52.870;5.822;2023-10-08T06:14:38;102416.47;;;14.98
66113;BMP280;52893;52.870;5.822;2023-10-08T06:17:35;102398.03;;;14.99
66113;BMP280;52893;52.870;5.822;2023-10-08T06:20:22;102414.53;;;14.99
66113;BMP280;52893;52.870;5.822;2023-10-08T06:22:53;102386.78;;;14.78
66113;BMP280;52893;52.870;5.822;2023-10-08T06:25:26;102426.81;;;14.93
66113;BMP280;52893;52.870;5.822;2023-10-08T06:27:55;102419.16;;;14.90
66113;BMP280;52893;52.870;5.822;2023-10-08T06:30:24;102439.28;;;14.99
66113;BMP280;52893;52.870;5.822;2023-10-08T06:32:56;102461.16;;;15.04
66113;BMP280;52893;52.870;5.822;2023-10-08T06:35:23;102472.31;;;15.08
66113;BMP280;52893;52.870;5.822;2023-10-08T06:37:54;102487.56;;;15.14
66113;BMP280;52893;52.870;5.822;2023-10-08T06:40:27;102443.56;;;15.14
66113;BMP280;52893;52.870;5.822;2023-10-08T06:43:11;102409.38;;;15.06
66113;BMP280;52893;52.870;5.822;2023-10-08T06:45:44;102425.09;;;15.06
66113;BMP280;52893;52.870;5.822;2023-10-08T06:48:13;102396.56;;;14.93
66113;BMP280;52893;52.870;5.822;2023-10-08T06:50:47;102400.94;;;14.94
66113;BMP280;52893;52.870;5.822;2023-10-08T06:53:15;102416.75;;;14.88
66113;BMP280;52893;52.870;5.822;2023-10-08T06:55:44;102449.00;;;14.96
66113;BMP280;52893;52.870;5.822;2023-10-08T06:58:15;102469.41;;;15.04
66113;BMP280;52893;52.870;5.822;2023-10-08T07:00:43;102491.22;;;15.00
66113;BMP280;52893;52.870;5.822;2023-10-08T07:03:15;102496.78;;;15.18
66113;BMP280;52893;52.870;5.822;2023-10-08T07:05:44;102504.31;;;15.26
66113;BMP280;52893;52.870;5.822;2023-10-08T07:08:21;102496.41;;;15.33
66113;BMP280;52893;52.870;5.822;2023-10-08T07:10:50;102517.13;;;15.39
66113;BMP280;52893;52.870;5.822;2023-10-08T07:13:19;102481.22;;;15.44
66113;BMP280;52893;52.870;5.822;2023-10-08T07:15:48;102438.00;;;15.44
66113;BMP280;52893;52.870;5.822;2023-10-08T07:18:16;102436.69;;;15.33
66113;BMP280;52893;52.870;5.822;2023-10-08T07:20:51;102451.84;;;15.22
66113;BMP280;52893;52.870;5.822;2023-10-08T07:23:20;102478.56;;;15.22
66113;BMP280;52893;52.870;5.822;2023-10-08T07:25:52;102473.34;;;15.20
66113;BMP280;52893;52.870;5.822;2023-10-08T07:28:24;102477.53;;;15.18
66113;BMP280;52893;52.870;5.822;2023-10-08T07:30:52;102486.94;;;15.17
66113;BMP280;52893;52.870;5.822;2023-10-08T07:33:20;102481.44;;;15.17
66113;BMP280;52893;52.870;5.822;2023-10-08T07:35:51;102463.47;;;15.19
66113;BMP280;52893;52.870;5.822;2023-10-08T07:38:26;102475.94;;;15.17
66113;BMP280;52893;52.870;5.822;2023-10-08T07:40:55;102493.59;;;15.16
66113;BMP280;52893;52.870;5.822;2023-10-08T07:43:24;102499.91;;;15.16
66113;BMP280;52893;52.870;5.822;2023-10-08T07:45:52;102496.78;;;15.18
66113;BMP280;52893;52.870;5.822;2023-10-08T07:48:20;102494.91;;;15.27
66113;BMP280;52893;52.870;5.822;2023-10-08T07:50:56;102494.59;;;15.28
66113;BMP280;52893;52.870;5.822;2023-10-08T07:53:23;102509.13;;;15.29
66113;BMP280;52893;52.870;5.822;2023-10-08T07:56:04;102540.22;;;15.29
66113;BMP280;52893;52.870;5.822;2023-10-08T07:58:35;102530.56;;;15.32
66113;BMP280;52893;52.870;5.822;2023-10-08T08:01:03;102528.75;;;15.36
66113;BMP280;52893;52.870;5.822;2023-10-08T08:03:32;102523.91;;;15.33
66113;BMP280;52893;52.870;5.822;2023-10-08T08:06:03;102535.91;;;15.37
66113;BMP280;52893;52.870;5.822;2023-10-08T08:08:32;102552.78;;;15.44
66113;BMP280;52893;52.870;5.822;2023-10-08T08:11:00;102544.38;;;15.49
66113;BMP280;52893;52.870;5.822;2023-10-08T08:13:32;102567.88;;;15.55
66113;BMP280;52893;52.870;5.822;2023-10-08T08:16:01;102599.16;;;15.59
66113;BMP280;52893;52.870;5.822;2023-10-08T08:18:42;102620.19;;;15.64
66113;BMP280;52893;52.870;5.822;2023-10-08T08:21:10;102604.56;;;15.73
66113;BMP280;52893;52.870;5.822;2023-10-08T08:23:41;102583.38;;;15.82
66113;BMP280;52893;52.870;5.822;2023-10-08T08:26:15;102569.78;;;15.94
66113;BMP280;52893;52.870;5.822;2023-10-08T08:28:54;102561.38;;;15.99
66113;BMP280;52893;52.870;5.822;2023-10-08T08:31:24;102552.41;;;16.02
66113;BMP280;52893;52.870;5.822;2023-10-08T08:33:52;102551.28;;;16.03
66113;BMP280;52893;52.870;5.822;2023-10-08T08:36:23;102559.09;;;16.01
66113;BMP280;52893;52.870;5.822;2023-10-08T08:38:50;102554.88;;;16.03
66113;BMP280;52893;52.870;5.822;2023-10-08T08:41:19;102552.59;;;16.06
66113;BMP280;52893;52.870;5.822;2023-10-08T08:43:48;102554.41;;;16.10
66113;BMP280;52893;52.870;5.822;2023-10-08T08:46:28;102557.81;;;16.16
66113;BMP280;52893;52.870;5.822;2023-10-08T08:49:00;102577.41;;;16.23
66113;BMP280;52893;52.870;5.822;2023-10-08T08:51:29;102585.19;;;16.29
66113;BMP280;52893;52.870;5.822;2023-10-08T08:53:57;102591.22;;;16.40
66113;BMP280;52893;52.870;5.822;2023-10-08T08:56:26;102581.47;;;16.42
66113;BMP280;52893;52.870;5.822;2023-10-08T08:58:57;102570.13;;;16.44
66113;BMP280;52893;52.870;5.822;2023-10-08T09:01:27;102548.72;;;16.41
66113;BMP280;52893;52.870;5.822;2023-10-08T09:03:59;102563.78;;;16.43
66113;BMP280;52893;52.870;5.822;2023-10-08T09:06:27;102559.09;;;16.44
66113;BMP280;52893;52.870;5.822;2023-10-08T09:08:54;102548.88;;;16.44
66113;BMP280;52893;52.870;5.822;2023-10-08T09:11:39;102549.53;;;16.50
66113;BMP280;52893;52.870;5.822;2023-10-08T09:14:07;102558.59;;;16.50
66113;BMP280;52893;52.870;5.822;2023-10-08T09:16:37;102536.41;;;16.56
66113;BMP280;52893;52.870;5.822;2023-10-08T09:19:05;102540.59;;;16.53
66113;BMP280;52893;52.870;5.822;2023-10-08T09:21:37;102554.69;;;16.60
66113;BMP280;52893;52.870;5.822;2023-10-08T09:24:07;102557.47;;;16.60
66113;BMP280;52893;52.870;5.822;2023-10-08T09:26:37;102551.34;;;16.46
66113;BMP280;52893;52.870;5.822;2023-10-08T09:29:06;102546.63;;;16.46
66113;BMP280;52893;52.870;5.822;2023-10-08T09:31:35;102557.13;;;16.53
66113;BMP280;52893;52.870;5.822;2023-10-08T09:34:04;102553.06;;;16.59
66113;BMP280;52893;52.870;5.822;2023-10-08T09:36:31;102552.41;;;16.71
66113;BMP280;52893;52.870;5.822;2023-10-08T09:39:02;102546.06;;;16.79
66113;BMP280;52893;52.870;5.822;2023-10-08T09:41:32;102553.41;;;17.21
66113;BMP280;52893;52.870;5.822;2023-10-08T09:44:00;102554.66;;;17.62
66113;BMP280;52893;52.870;5.822;2023-10-08T09:46:31;102545.13;;;18.00
66113;BMP280;52893;52.870;5.822;2023-10-08T09:49:01;102569.59;;;18.31
66113;BMP280;52893;52.870;5.822;2023-10-08T09:51:37;102566.28;;;18.38
66113;BMP280;52893;52.870;5.822;2023-10-08T09:54:10;102585.56;;;18.79
66113;BMP280;52893;52.870;5.822;2023-10-08T09:56:40;102592.09;;;19.19
66113;BMP280;52893;52.870;5.822;2023-10-08T09:59:09;102598.56;;;19.48
66113;BMP280;52893;52.870;5.822;2023-10-08T10:01:37;102596.13;;;19.58
66113;BMP280;52893;52.870;5.822;2023-10-08T10:04:08;102597.06;;;19.50
66113;BMP280;52893;52.870;5.822;2023-10-08T10:06:36;102603.84;;;19.41
66113;BMP280;52893;52.870;5.822;2023-10-08T10:09:05;102607.56;;;19.33
66113;BMP280;52893;52.870;5.822;2023-10-08T10:11:47;102595.78;;;19.11
66113;BMP280;52893;52.870;5.822;2023-10-08T10:14:14;102601.06;;;19.04
66113;BMP280;52893;52.870;5.822;2023-10-08T10:16:43;102573.47;;;18.84
66113;BMP280;52893;52.870;5.822;2023-10-08T10:19:16;102568.47;;;18.77
66113;BMP280;52893;52.870;5.822;2023-10-08T10:21:47;102568.56;;;18.68
66113;BMP280;52893;52.870;5.822;2023-10-08T10:24:31;102578.13;;;18.59
66113;BMP280;52893;52.870;5.822;2023-10-08T10:27:10;102572.34;;;18.52
66113;BMP280;52893;52.870;5.822;2023-10-08T10:29:37;102532.19;;;18.13
66113;BMP280;52893;52.870;5.822;2023-10-08T10:32:05;102569.00;;;18.26
66113;BMP280;52893;52.870;5.822;2023-10-08T10:34:38;102613.75;;;18.40
66113;BMP280;52893;52.870;5.822;2023-10-08T10:37:07;102633.00;;;18.57
66113;BMP280;52893;52.870;5.822;2023-10-08T10:39:55;102632.19;;;18.89
66113;BMP280;52893;52.870;5.822;2023-10-08T10:42:26;102632.28;;;19.38
66113;BMP280;52893;52.870;5.822;2023-10-08T10:44:54;102638.09;;;19.97
66113;BMP280;52893;52.870;5.822;2023-10-08T10:47:24;102626.47;;;20.59
66113;BMP280;52893;52.870;5.822;2023-10-08T10:49:54;102615.06;;;21.07
66113;BMP280;52893;52.870;5.822;2023-10-08T10:52:43;102624.97;;;21.55
66113;BMP280;52893;52.870;5.822;2023-10-08T10:55:18;102617.91;;;21.96
66113;BMP280;52893;52.870;5.822;2023-10-08T10:57:57;102630.09;;;22.07
66113;BMP280;52893;52.870;5.822;2023-10-08T11:00:41;102590.53;;;21.60
66113;BMP280;52893;52.870;5.822;2023-10-08T11:03:22;102604.66;;;21.35
66113;BMP280;52893;52.870;5.822;2023-10-08T11:05:55;102597.13;;;21.20
66113;BMP280;52893;52.870;5.822;2023-10-08T11:08:27;102583.16;;;21.01
66113;BMP280;52893;52.870;5.822;2023-10-08T11:11:01;102583.41;;;20.80
66113;BMP280;52893;52.870;5.822;2023-10-08T11:13:33;102589.34;;;20.35
66113;BMP280;52893;52.870;5.822;2023-10-08T11:16:06;102580.94;;;19.92
66113;BMP280;52893;52.870;5.822;2023-10-08T11:18:35;102572.00;;;19.59
66113;BMP280;52893;52.870;5.822;2023-10-08T11:21:09;102563.38;;;19.36
66113;BMP280;52893;52.870;5.822;2023-10-08T11:23:44;102569.34;;;19.14
66113;BMP280;52893;52.870;5.822;2023-10-08T11:26:19;102566.47;;;18.98
66113;BMP280;52893;52.870;5.822;2023-10-08T11:28:47;102559.06;;;18.90
66113;BMP280;52893;52.870;5.822;2023-10-08T11:31:17;102564.56;;;18.78
66113;BMP280;52893;52.870;5.822;2023-10-08T11:33:46;102558.22;;;18.78
66113;BMP280;52893;52.870;5.822;2023-10-08T11:36:20;102552.63;;;19.22
66113;BMP280;52893;52.870;5.822;2023-10-08T11:38:55;102554.16;;;19.84
66113;BMP280;52893;52.870;5.822;2023-10-08T11:41:27;102543.34;;;20.07
66113;BMP280;52893;52.870;5.822;2023-10-08T11:43:57;102541.47;;;19.95
66113;BMP280;52893;52.870;5.822;2023-10-08T11:46:26;102545.75;;;19.81
66113;BMP280;52893;52.870;5.822;2023-10-08T11:48:54;102532.03;;;19.72
66113;BMP280;52893;52.870;5.822;2023-10-08T11:51:24;102519.34;;;19.59
66113;BMP280;52893;52.870;5.822;2023-10-08T11:53:55;102509.53;;;19.49
66113;BMP280;52893;52.870;5.822;2023-10-08T11:56:22;102507.16;;;19.36
66113;BMP280;52893;52.870;5.822;2023-10-08T11:58:50;102502.31;;;19.33
66113;BMP280;52893;52.870;5.822;2023-10-08T12:01:18;102496.09;;;19.11
66113;BMP280;52893;52.870;5.822;2023-10-08T12:03:47;102492.06;;;19.09
66113;BMP280;52893;52.870;5.822;2023-10-08T12:06:16;102489.78;;;19.11
66113;BMP280;52893;52.870;5.822;2023-10-08T12:08:45;102488.84;;;19.07
66113;BMP280;52893;52.870;5.822;2023-10-08T12:11:14;102487.34;;;18.97
66113;BMP280;52893;52.870;5.822;2023-10-08T12:13:42;102487.66;;;18.96
66113;BMP280;52893;52.870;5.822;2023-10-08T12:16:13;102490.34;;;18.80
66113;BMP280;52893;52.870;5.822;2023-10-08T12:18:47;102497.94;;;18.71
66113;BMP280;52893;52.870;5.822;2023-10-08T12:21:24;102494.56;;;18.65
66113;BMP280;52893;52.870;5.822;2023-10-08T12:23:52;102497.56;;;18.60
66113;BMP280;52893;52.870;5.822;2023-10-08T12:26:22;102491.78;;;18.53
66113;BMP280;52893;52.870;5.822;2023-10-08T12:28:50;102500.91;;;18.66
66113;BMP280;52893;52.870;5.822;2023-10-08T12:31:20;102507.03;;;18.72
66113;BMP280;52893;52.870;5.822;2023-10-08T12:33:48;102511.63;;;18.67
66113;BMP280;52893;52.870;5.822;2023-10-08T12:36:19;102513.34;;;18.60
66113;BMP280;52893;52.870;5.822;2023-10-08T12:38:49;102507.78;;;18.48
66113;BMP280;52893;52.870;5.822;2023-10-08T12:41:24;102504.63;;;18.37
66113;BMP280;52893;52.870;5.822;2023-10-08T12:43:54;102517.53;;;18.33
66113;BMP280;52893;52.870;5.822;2023-10-08T12:46:22;102503.56;;;18.30
66113;BMP280;52893;52.870;5.822;2023-10-08T12:48:51;102509.91;;;18.30
66113;BMP280;52893;52.870;5.822;2023-10-08T12:51:20;102497.81;;;18.35
66113;BMP280;52893;52.870;5.822;2023-10-08T12:53:50;102494.50;;;18.41
66113;BMP280;52893;52.870;5.822;2023-10-08T12:56:26;102493.94;;;18.48
66113;BMP280;52893;52.870;5.822;2023-10-08T12:59:01;102504.88;;;18.44
66113;BMP280;52893;52.870;5.822;2023-10-08T13:01:32;102522.03;;;18.38
66113;BMP280;52893;52.870;5.822;2023-10-08T13:04:01;102530.78;;;18.40
66113;BMP280;52893;52.870;5.822;2023-10-08T13:06:34;102525.03;;;18.33
66113;BMP280;52893;52.870;5.822;2023-10-08T13:09:04;102525.56;;;18.26
66113;BMP280;52893;52.870;5.822;2023-10-08T13:11:40;102533.19;;;18.29
66113;BMP280;52893;52.870;5.822;2023-10-08T13:14:08;102507.75;;;18.36
66113;BMP280;52893;52.870;5.822;2023-10-08T13:16:37;102492.75;;;18.37
66113;BMP280;52893;52.870;5.822;2023-10-08T13:19:04;102481.91;;;18.32
66113;BMP280;52893;52.870;5.822;2023-10-08T13:21:34;102480.16;;;18.15
66113;BMP280;52893;52.870;5.822;2023-10-08T13:24:03;102486.25;;;18.21
66113;BMP280;52893;52.870;5.822;2023-10-08T13:26:35;102509.53;;;18.20
66113;BMP280;52893;52.870;5.822;2023-10-08T13:29:05;102507.22;;;18.22
66113;BMP280;52893;52.870;5.822;2023-10-08T13:31:35;102495.59;;;18.28
66113;BMP280;52893;52.870;5.822;2023-10-08T13:34:02;102487.94;;;18.34
66113;BMP280;52893;52.870;5.822;2023-10-08T13:36:36;102472.25;;;18.38
66113;BMP280;52893;52.870;5.822;2023-10-08T13:39:05;102468.56;;;18.34
66113;BMP280;52893;52.870;5.822;2023-10-08T13:41:35;102462.44;;;18.28
66113;BMP280;52893;52.870;5.822;2023-10-08T13:44:05;102480.16;;;18.15
66113;BMP280;52893;52.870;5.822;2023-10-08T13:46:33;102503.06;;;18.16
66113;BMP280;52893;52.870;5.822;2023-10-08T13:49:02;102515.94;;;18.11
66113;BMP280;52893;52.870;5.822;2023-10-08T13:51:31;102530.69;;;18.16
66113;BMP280;52893;52.870;5.822;2023-10-08T13:54:01;102549.84;;;18.21
66113;BMP280;52893;52.870;5.822;2023-10-08T13:56:32;102545.03;;;18.30
66113;BMP280;52893;52.870;5.822;2023-10-08T13:59:00;102537.50;;;18.39
66113;BMP280;52893;52.870;5.822;2023-10-08T14:01:40;102513.88;;;18.41
66113;BMP280;52893;52.870;5.822;2023-10-08T14:04:09;102510.88;;;18.34
66113;BMP280;52893;52.870;5.822;2023-10-08T14:06:37;102493.53;;;18.25
66113;BMP280;52893;52.870;5.822;2023-10-08T14:09:07;102462.94;;;18.09
66113;BMP280;52893;52.870;5.822;2023-10-08T14:11:38;102457.16;;;18.02
66113;BMP280;52893;52.870;5.822;2023-10-08T14:14:05;102466.94;;;18.00
66113;BMP280;52893;52.870;5.822;2023-10-08T14:16:36;102474.63;;;17.94
66113;BMP280;52893;52.870;5.822;2023-10-08T14:19:09;102454.56;;;17.85
66113;BMP280;52893;52.870;5.822;2023-10-08T14:21:38;102449.44;;;17.75
66113;BMP280;52893;52.870;5.822;2023-10-08T14:24:15;102471.41;;;17.72
66113;BMP280;52893;52.870;5.822;2023-10-08T14:26:42;102463.47;;;17.70